sensor_id;sensor_type;location;lat;lon;timestamp;P1;durP1;ratioP1;P2;durP2;ratioP2
58760;SDS011;44529;47.464;19.014;2023-06-22T00:01:22;11.57;;;5.57;;
58760;SDS011;44529;47.464;19.014;2023-06-22T00:04:25;14.35;;;5.93;;
58760;SDS011;44529;47.464;19.014;2023-06-22T00:07:27;9.60;;;5.57;;
58760;SDS011;44529;47.464;19.014;2023-06-22T00:10:30;12.37;;;5.87;;
58760;SDS011;44529;47.464;19.014;2023-06-22T00:13:32;13.07;;;5.87;;
58760;SDS011;44529;47.464;19.014;2023-06-22T00:16:35;14.63;;;6.78;;
58760;SDS011;44529;47.464;19.014;2023-06-22T00:19:37;8.63;;;6.00;;
58760;SDS011;44529;47.464;19.014;2023-06-22T00:22:42;12.10;;;6.20;;
58760;SDS011;44529;47.464;19.014;2023-06-22T00:25:44;15.10;;;6.50;;
58760;SDS011;44529;47.464;19.014;2023-06-22T00:28:47;15.93;;;6.82;;
58760;SDS011;44529;47.464;19.014;2023-06-22T00:31:50;14.50;;;6.75;;
58760;SDS011;44529;47.464;19.014;2023-06-22T00:34:52;11.60;;;6.43;;
58760;SDS011;44529;47.464;19.014;2023-06-22T00:37:55;13.50;;;6.65;;
58760;SDS011;44529;47.464;19.014;2023-06-22T00:41:05;9.02;;;6.20;;
58760;SDS011;44529;47.464;19.014;2023-06-22T00:44:07;10.40;;;6.62;;
58760;SDS011;44529;47.464;19.014;2023-06-22T00:47:11;11.68;;;6.55;;
58760;SDS011;44529;47.464;19.014;2023-06-22T00:50:18;13.15;;;7.12;;
58760;SDS011;44529;47.464;19.014;2023-06-22T00:53:23;10.48;;;6.22;;
58760;SDS011;44529;47.464;19.014;2023-06-22T00:56:25;15.43;;;7.05;;
58760;SDS011;44529;47.464;19.014;2023-06-22T00:59:28;14.15;;;6.68;;
58760;SDS011;44529;47.464;19.014;2023-06-22T01:02:30;11.18;;;6.45;;
58760;SDS011;44529;47.464;19.014;2023-06-22T01:05:34;10.35;;;6.05;;
58760;SDS011;44529;47.464;19.014;2023-06-22T01:08:42;12.20;;;6.70;;
58760;SDS011;44529;47.464;19.014;2023-06-22T01:11:53;12.80;;;6.47;;
58760;SDS011;44529;47.464;19.014;2023-06-22T01:15:05;13.23;;;6.53;;
58760;SDS011;44529;47.464;19.014;2023-06-22T01:18:13;9.77;;;6.25;;
58760;SDS011;44529;47.464;19.014;2023-06-22T01:21:17;10.07;;;5.95;;
58760;SDS011;44529;47.464;19.014;2023-06-22T01:24:23;11.93;;;6.50;;
58760;SDS011;44529;47.464;19.014;2023-06-22T01:27:40;7.50;;;6.15;;
58760;SDS011;44529;47.464;19.014;2023-06-22T01:30:52;12.98;;;5.82;;
58760;SDS011;44529;47.464;19.014;2023-06-22T01:34:07;12.60;;;6.82;;
58760;SDS011;44529;47.464;19.014;2023-06-22T01:37:11;9.63;;;6.62;;
58760;SDS011;44529;47.464;19.014;2023-06-22T01:40:13;9.90;;;6.53;;
58760;SDS011;44529;47.464;19.014;2023-06-22T01:43:18;12.70;;;6.15;;
58760;SDS011;44529;47.464;19.014;2023-06-22T01:46:24;9.23;;;6.05;;
58760;SDS011;44529;47.464;19.014;2023-06-22T01:49:27;11.52;;;6.93;;
58760;SDS011;44529;47.464;19.014;2023-06-22T01:52:31;14.93;;;6.97;;
58760;SDS011;44529;47.464;19.014;2023-06-22T01:55:36;12.00;;;7.20;;
58760;SDS011;44529;47.464;19.014;2023-06-22T01:58:41;8.90;;;6.53;;
58760;SDS011;44529;47.464;19.014;2023-06-22T02:01:57;12.52;;;7.65;;
58760;SDS011;44529;47.464;19.014;2023-06-22T02:05:07;13.15;;;6.82;;
58760;SDS011;44529;47.464;19.014;2023-06-22T02:08:19;12.15;;;6.65;;
58760;SDS011;44529;47.464;19.014;2023-06-22T02:11:25;13.30;;;5.75;;
58760;SDS011;44529;47.464;19.014;2023-06-22T02:14:30;11.38;;;5.97;;
58760;SDS011;44529;47.464;19.014;2023-06-22T02:17:33;13.52;;;5.70;;
58760;SDS011;44529;47.464;19.014;2023-06-22T02:20:37;9.75;;;4.90;;
58760;SDS011;44529;47.464;19.014;2023-06-22T02:23:40;12.60;;;5.22;;
58760;SDS011;44529;47.464;19.014;2023-06-22T02:26:42;13.57;;;5.40;;
58760;SDS011;44529;47.464;19.014;2023-06-22T02:29:47;11.32;;;5.60;;
58760;SDS011;44529;47.464;19.014;2023-06-22T02:32:49;9.13;;;5.28;;
58760;SDS011;44529;47.464;19.014;2023-06-22T02:39:07;11.35;;;5.18;;
58760;SDS011;44529;47.464;19.014;2023-06-22T02:42:09;10.10;;;5.10;;
58760;SDS011;44529;47.464;19.014;2023-06-22T02:45:12;11.52;;;5.12;;
58760;SDS011;44529;47.464;19.014;2023-06-22T02:48:17;12.65;;;4.87;;
58760;SDS011;44529;47.464;19.014;2023-06-22T02:51:19;11.25;;;5.00;;
58760;SDS011;44529;47.464;19.014;2023-06-22T02:54:22;10.13;;;5.40;;
58760;SDS011;44529;47.464;19.014;2023-06-22T02:57:25;7.70;;;5.18;;
58760;SDS011;44529;47.464;19.014;2023-06-22T03:00:27;14.48;;;5.37;;
58760;SDS011;44529;47.464;19.014;2023-06-22T03:03:33;14.02;;;5.78;;
58760;SDS011;44529;47.464;19.014;2023-06-22T03:06:36;13.13;;;7.05;;
58760;SDS011;44529;47.464;19.014;2023-06-22T03:09:38;13.95;;;6.97;;
58760;SDS011;44529;47.464;19.014;2023-06-22T03:12:41;16.12;;;7.62;;
58760;SDS011;44529;47.464;19.014;2023-06-22T03:15:45;14.10;;;6.90;;
58760;SDS011;44529;47.464;19.014;2023-06-22T03:18:47;10.10;;;7.35;;
58760;SDS011;44529;47.464;19.014;2023-06-22T03:21:50;11.82;;;7.35;;
58760;SDS011;44529;47.464;19.014;2023-06-22T03:24:52;14.32;;;7.65;;
58760;SDS011;44529;47.464;19.014;2023-06-22T03:27:55;10.13;;;7.05;;
58760;SDS011;44529;47.464;19.014;2023-06-22T03:30:57;12.45;;;7.95;;
58760;SDS011;44529;47.464;19.014;2023-06-22T03:34:00;18.17;;;7.85;;
58760;SDS011;44529;47.464;19.014;2023-06-22T03:37:02;11.15;;;7.22;;
58760;SDS011;44529;47.464;19.014;2023-06-22T03:40:05;12.52;;;7.82;;
58760;SDS011;44529;47.464;19.014;2023-06-22T03:43:08;13.15;;;7.10;;
58760;SDS011;44529;47.464;19.014;2023-06-22T03:46:11;10.40;;;6.50;;
58760;SDS011;44529;47.464;19.014;2023-06-22T03:49:13;12.75;;;6.78;;
58760;SDS011;44529;47.464;19.014;2023-06-22T03:52:16;15.25;;;7.15;;
58760;SDS011;44529;47.464;19.014;2023-06-22T03:55:21;9.95;;;6.05;;
58760;SDS011;44529;47.464;19.014;2023-06-22T03:58:24;11.38;;;6.30;;
58760;SDS011;44529;47.464;19.014;2023-06-22T04:01:26;11.35;;;6.32;;
58760;SDS011;44529;47.464;19.014;2023-06-22T04:04:29;12.55;;;5.80;;
58760;SDS011;44529;47.464;19.014;2023-06-22T04:07:31;11.12;;;6.45;;
58760;SDS011;44529;47.464;19.014;2023-06-22T04:10:34;13.80;;;7.10;;
58760;SDS011;44529;47.464;19.014;2023-06-22T04:13:36;11.50;;;6.78;;
58760;SDS011;44529;47.464;19.014;2023-06-22T04:16:39;14.52;;;6.87;;
58760;SDS011;44529;47.464;19.014;2023-06-22T04:19:41;10.73;;;6.68;;
58760;SDS011;44529;47.464;19.014;2023-06-22T04:22:43;12.27;;;6.57;;
58760;SDS011;44529;47.464;19.014;2023-06-22T04:25:47;10.98;;;6.95;;
58760;SDS011;44529;47.464;19.014;2023-06-22T04:28:49;16.12;;;7.25;;
58760;SDS011;44529;47.464;19.014;2023-06-22T04:31:54;10.63;;;7.03;;
58760;SDS011;44529;47.464;19.014;2023-06-22T04:34:58;15.27;;;7.07;;
58760;SDS011;44529;47.464;19.014;2023-06-22T04:38:02;20.35;;;8.05;;
58760;SDS011;44529;47.464;19.014;2023-06-22T04:41:05;14.73;;;7.15;;
58760;SDS011;44529;47.464;19.014;2023-06-22T04:44:11;16.00;;;6.70;;
58760;SDS011;44529;47.464;19.014;2023-06-22T04:47:15;15.52;;;7.10;;
58760;SDS011;44529;47.464;19.014;2023-06-22T04:50:17;15.95;;;6.80;;
58760;SDS011;44529;47.464;19.014;2023-06-22T04:53:20;11.95;;;6.85;;
58760;SDS011;44529;47.464;19.014;2023-06-22T04:56:22;10.00;;;6.62;;
58760;SDS011;44529;47.464;19.014;2023-06-22T04:59:30;13.40;;;6.90;;
58760;SDS011;44529;47.464;19.014;2023-06-22T05:02:33;13.27;;;6.60;;
58760;SDS011;44529;47.464;19.014;2023-06-22T05:05:36;18.37;;;7.10;;
58760;SDS011;44529;47.464;19.014;2023-06-22T05:08:38;14.30;;;7.10;;
58760;SDS011;44529;47.464;19.014;2023-06-22T05:11:41;11.10;;;6.60;;
58760;SDS011;44529;47.464;19.014;2023-06-22T05:14:43;15.30;;;7.22;;
58760;SDS011;44529;47.464;19.014;2023-06-22T05:17:45;11.27;;;7.20;;
58760;SDS011;44529;47.464;19.014;2023-06-22T05:20:48;13.77;;;8.20;;
58760;SDS011;44529;47.464;19.014;2023-06-22T05:23:51;13.10;;;7.60;;
58760;SDS011;44529;47.464;19.014;2023-06-22T05:26:54;14.00;;;7.53;;
58760;SDS011;44529;47.464;19.014;2023-06-22T05:29:57;13.57;;;7.30;;
58760;SDS011;44529;47.464;19.014;2023-06-22T05:32:59;14.90;;;7.50;;
58760;SDS011;44529;47.464;19.014;2023-06-22T05:36:02;13.30;;;7.35;;
58760;SDS011;44529;47.464;19.014;2023-06-22T05:39:11;13.82;;;7.65;;
58760;SDS011;44529;47.464;19.014;2023-06-22T05:42:15;14.20;;;7.37;;
58760;SDS011;44529;47.464;19.014;2023-06-22T05:45:18;16.50;;;7.05;;
58760;SDS011;44529;47.464;19.014;2023-06-22T05:48:20;13.70;;;7.07;;
58760;SDS011;44529;47.464;19.014;2023-06-22T05:51:22;15.57;;;7.75;;
58760;SDS011;44529;47.464;19.014;2023-06-22T05:54:25;14.23;;;7.32;;
58760;SDS011;44529;47.464;19.014;2023-06-22T05:57:29;11.57;;;7.28;;
58760;SDS011;44529;47.464;19.014;2023-06-22T06:00:32;17.15;;;7.60;;
58760;SDS011;44529;47.464;19.014;2023-06-22T06:03:35;14.73;;;7.07;;
58760;SDS011;44529;47.464;19.014;2023-06-22T06:06:43;16.85;;;6.57;;
58760;SDS011;44529;47.464;19.014;2023-06-22T06:09:45;14.30;;;6.95;;
58760;SDS011;44529;47.464;19.014;2023-06-22T06:12:48;14.18;;;6.85;;
58760;SDS011;44529;47.464;19.014;2023-06-22T06:15:50;13.57;;;6.82;;
58760;SDS011;44529;47.464;19.014;2023-06-22T06:18:53;15.07;;;6.75;;
58760;SDS011;44529;47.464;19.014;2023-06-22T06:21:58;10.32;;;5.82;;
58760;SDS011;44529;47.464;19.014;2023-06-22T06:25:00;16.02;;;5.80;;
58760;SDS011;44529;47.464;19.014;2023-06-22T06:28:03;13.75;;;6.03;;
58760;SDS011;44529;47.464;19.014;2023-06-22T06:31:05;13.35;;;6.37;;
58760;SDS011;44529;47.464;19.014;2023-06-22T06:34:10;12.07;;;5.28;;
58760;SDS011;44529;47.464;19.014;2023-06-22T06:37:13;11.32;;;5.40;;
58760;SDS011;44529;47.464;19.014;2023-06-22T06:40:16;15.57;;;5.60;;
58760;SDS011;44529;47.464;19.014;2023-06-22T06:43:19;14.02;;;6.05;;
58760;SDS011;44529;47.464;19.014;2023-06-22T06:46:22;11.25;;;4.57;;
58760;SDS011;44529;47.464;19.014;2023-06-22T06:49:24;10.07;;;4.97;;
58760;SDS011;44529;47.464;19.014;2023-06-22T06:52:27;10.32;;;5.53;;
58760;SDS011;44529;47.464;19.014;2023-06-22T06:55:29;11.23;;;4.97;;
58760;SDS011;44529;47.464;19.014;2023-06-22T06:58:35;10.70;;;4.82;;
58760;SDS011;44529;47.464;19.014;2023-06-22T07:01:38;8.25;;;5.20;;
58760;SDS011;44529;47.464;19.014;2023-06-22T07:04:40;10.32;;;4.97;;
58760;SDS011;44529;47.464;19.014;2023-06-22T07:07:43;11.38;;;5.00;;
58760;SDS011;44529;47.464;19.014;2023-06-22T07:10:46;11.43;;;4.90;;
58760;SDS011;44529;47.464;19.014;2023-06-22T07:13:48;15.73;;;5.50;;
58760;SDS011;44529;47.464;19.014;2023-06-22T07:16:51;9.68;;;4.65;;
58760;SDS011;44529;47.464;19.014;2023-06-22T07:19:53;10.93;;;4.50;;
58760;SDS011;44529;47.464;19.014;2023-06-22T07:22:56;12.25;;;4.62;;
58760;SDS011;44529;47.464;19.014;2023-06-22T07:26:00;12.25;;;4.72;;
58760;SDS011;44529;47.464;19.014;2023-06-22T07:29:08;8.00;;;4.87;;
58760;SDS011;44529;47.464;19.014;2023-06-22T07:32:10;8.27;;;4.20;;
58760;SDS011;44529;47.464;19.014;2023-06-22T07:35:13;10.85;;;5.05;;
58760;SDS011;44529;47.464;19.014;2023-06-22T07:38:15;10.40;;;4.57;;
58760;SDS011;44529;47.464;19.014;2023-06-22T07:41:18;12.70;;;4.75;;
58760;SDS011;44529;47.464;19.014;2023-06-22T07:44:21;7.80;;;4.75;;
58760;SDS011;44529;47.464;19.014;2023-06-22T07:47:24;9.05;;;4.68;;
58760;SDS011;44529;47.464;19.014;2023-06-22T07:50:28;9.43;;;4.43;;
58760;SDS011;44529;47.464;19.014;2023-06-22T07:53:31;9.40;;;4.70;;
58760;SDS011;44529;47.464;19.014;2023-06-22T07:56:33;12.10;;;4.87;;
58760;SDS011;44529;47.464;19.014;2023-06-22T07:59:36;8.75;;;4.57;;
58760;SDS011;44529;47.464;19.014;2023-06-22T08:02:39;7.80;;;4.85;;
58760;SDS011;44529;47.464;19.014;2023-06-22T08:05:43;10.75;;;5.43;;
58760;SDS011;44529;47.464;19.014;2023-06-22T08:08:45;11.38;;;4.95;;
58760;SDS011;44529;47.464;19.014;2023-06-22T08:11:50;10.55;;;5.07;;
58760;SDS011;44529;47.464;19.014;2023-06-22T08:14:52;11.82;;;5.22;;
58760;SDS011;44529;47.464;19.014;2023-06-22T08:17:54;10.05;;;5.25;;
58760;SDS011;44529;47.464;19.014;2023-06-22T08:20:57;8.52;;;5.07;;
58760;SDS011;44529;47.464;19.014;2023-06-22T08:23:59;11.40;;;6.43;;
58760;SDS011;44529;47.464;19.014;2023-06-22T08:27:01;9.13;;;7.35;;
58760;SDS011;44529;47.464;19.014;2023-06-22T08:30:04;9.48;;;7.47;;
58760;SDS011;44529;47.464;19.014;2023-06-22T08:33:08;10.23;;;8.07;;
58760;SDS011;44529;47.464;19.014;2023-06-22T08:36:10;11.00;;;8.18;;
58760;SDS011;44529;47.464;19.014;2023-06-22T08:39:15;8.20;;;7.40;;
58760;SDS011;44529;47.464;19.014;2023-06-22T08:42:20;8.35;;;7.03;;
58760;SDS011;44529;47.464;19.014;2023-06-22T08:45:23;12.05;;;7.55;;
58760;SDS011;44529;47.464;19.014;2023-06-22T08:48:25;7.53;;;6.45;;
58760;SDS011;44529;47.464;19.014;2023-06-22T08:51:27;8.88;;;7.97;;
58760;SDS011;44529;47.464;19.014;2023-06-22T08:54:31;9.23;;;7.37;;
58760;SDS011;44529;47.464;19.014;2023-06-22T08:57:34;9.23;;;7.80;;
58760;SDS011;44529;47.464;19.014;2023-06-22T09:00:39;12.10;;;7.65;;
58760;SDS011;44529;47.464;19.014;2023-06-22T09:03:41;10.02;;;7.90;;
58760;SDS011;44529;47.464;19.014;2023-06-22T09:06:44;10.27;;;8.88;;
58760;SDS011;44529;47.464;19.014;2023-06-22T09:09:48;13.13;;;7.60;;
58760;SDS011;44529;47.464;19.014;2023-06-22T09:12:50;9.23;;;8.30;;
58760;SDS011;44529;47.464;19.014;2023-06-22T09:15:53;10.10;;;7.87;;
58760;SDS011;44529;47.464;19.014;2023-06-22T09:18:55;15.48;;;7.65;;
58760;SDS011;44529;47.464;19.014;2023-06-22T09:21:57;12.40;;;8.05;;
58760;SDS011;44529;47.464;19.014;2023-06-22T09:25:00;13.57;;;8.48;;
58760;SDS011;44529;47.464;19.014;2023-06-22T09:28:03;11.48;;;8.02;;
58760;SDS011;44529;47.464;19.014;2023-06-22T09:31:05;9.20;;;7.93;;
58760;SDS011;44529;47.464;19.014;2023-06-22T09:34:08;10.77;;;8.18;;
58760;SDS011;44529;47.464;19.014;2023-06-22T09:37:11;10.60;;;7.32;;
58760;SDS011;44529;47.464;19.014;2023-06-22T09:40:13;10.40;;;8.07;;
58760;SDS011;44529;47.464;19.014;2023-06-22T09:43:19;10.32;;;8.05;;
58760;SDS011;44529;47.464;19.014;2023-06-22T09:46:21;14.02;;;8.32;;
58760;SDS011;44529;47.464;19.014;2023-06-22T09:49:27;12.02;;;8.30;;
58760;SDS011;44529;47.464;19.014;2023-06-22T09:52:48;13.68;;;8.05;;
58760;SDS011;44529;47.464;19.014;2023-06-22T09:55:56;10.15;;;8.85;;
58760;SDS011;44529;47.464;19.014;2023-06-22T09:58:59;9.82;;;8.00;;
58760;SDS011;44529;47.464;19.014;2023-06-22T10:02:19;12.25;;;7.90;;
58760;SDS011;44529;47.464;19.014;2023-06-22T10:05:22;15.02;;;8.57;;
58760;SDS011;44529;47.464;19.014;2023-06-22T10:08:24;11.50;;;8.45;;
58760;SDS011;44529;47.464;19.014;2023-06-22T10:11:27;10.05;;;8.05;;
58760;SDS011;44529;47.464;19.014;2023-06-22T10:14:32;10.98;;;8.60;;
58760;SDS011;44529;47.464;19.014;2023-06-22T10:17:34;10.77;;;8.38;;
58760;SDS011;44529;47.464;19.014;2023-06-22T10:20:37;11.40;;;8.07;;
58760;SDS011;44529;47.464;19.014;2023-06-22T10:23:40;11.35;;;8.07;;
58760;SDS011;44529;47.464;19.014;2023-06-22T10:26:42;9.52;;;7.97;;
58760;SDS011;44529;47.464;19.014;2023-06-22T10:29:44;10.85;;;8.65;;
58760;SDS011;44529;47.464;19.014;2023-06-22T10:32:47;10.02;;;8.20;;
58760;SDS011;44529;47.464;19.014;2023-06-22T10:35:49;10.52;;;8.23;;
58760;SDS011;44529;47.464;19.014;2023-06-22T10:38:52;10.27;;;8.23;;
58760;SDS011;44529;47.464;19.014;2023-06-22T10:41:55;12.18;;;8.70;;
58760;SDS011;44529;47.464;19.014;2023-06-22T10:44:58;11.52;;;7.68;;
58760;SDS011;44529;47.464;19.014;2023-06-22T10:48:00;8.60;;;7.75;;
58760;SDS011;44529;47.464;19.014;2023-06-22T10:51:02;12.23;;;7.62;;
58760;SDS011;44529;47.464;19.014;2023-06-22T10:54:05;11.02;;;7.78;;
58760;SDS011;44529;47.464;19.014;2023-06-22T10:57:07;12.30;;;8.10;;
58760;SDS011;44529;47.464;19.014;2023-06-22T11:00:10;11.98;;;8.80;;
58760;SDS011;44529;47.464;19.014;2023-06-22T11:03:15;9.18;;;7.53;;
58760;SDS011;44529;47.464;19.014;2023-06-22T11:06:17;11.50;;;8.27;;
58760;SDS011;44529;47.464;19.014;2023-06-22T11:09:20;8.98;;;7.78;;
58760;SDS011;44529;47.464;19.014;2023-06-22T11:15:31;8.77;;;7.60;;
58760;SDS011;44529;47.464;19.014;2023-06-22T11:18:36;15.55;;;8.23;;
58760;SDS011;44529;47.464;19.014;2023-06-22T11:21:39;13.00;;;8.23;;
58760;SDS011;44529;47.464;19.014;2023-06-22T11:24:41;9.70;;;7.75;;
58760;SDS011;44529;47.464;19.014;2023-06-22T11:27:44;11.68;;;8.05;;
58760;SDS011;44529;47.464;19.014;2023-06-22T11:30:46;10.35;;;7.32;;
58760;SDS011;44529;47.464;19.014;2023-06-22T11:33:49;9.77;;;7.90;;
58760;SDS011;44529;47.464;19.014;2023-06-22T11:36:52;9.00;;;7.97;;
58760;SDS011;44529;47.464;19.014;2023-06-22T11:39:54;8.65;;;7.85;;
58760;SDS011;44529;47.464;19.014;2023-06-22T11:43:08;10.25;;;7.97;;
58760;SDS011;44529;47.464;19.014;2023-06-22T11:46:10;8.23;;;6.82;;
58760;SDS011;44529;47.464;19.014;2023-06-22T11:49:13;9.95;;;7.43;;
58760;SDS011;44529;47.464;19.014;2023-06-22T11:52:15;9.07;;;7.82;;
58760;SDS011;44529;47.464;19.014;2023-06-22T11:55:20;10.20;;;8.13;;
58760;SDS011;44529;47.464;19.014;2023-06-22T11:58:22;10.18;;;8.07;;
58760;SDS011;44529;47.464;19.014;2023-06-22T12:01:25;10.15;;;7.85;;
58760;SDS011;44529;47.464;19.014;2023-06-22T12:04:27;9.90;;;7.70;;
58760;SDS011;44529;47.464;19.014;2023-06-22T12:07:29;10.48;;;7.95;;
58760;SDS011;44529;47.464;19.014;2023-06-22T12:10:32;20.77;;;7.97;;
58760;SDS011;44529;47.464;19.014;2023-06-22T12:13:34;11.60;;;7.87;;
58760;SDS011;44529;47.464;19.014;2023-06-22T12:16:37;10.57;;;7.30;;
58760;SDS011;44529;47.464;19.014;2023-06-22T12:19:39;11.95;;;7.90;;
58760;SDS011;44529;47.464;19.014;2023-06-22T12:22:42;10.32;;;8.05;;
58760;SDS011;44529;47.464;19.014;2023-06-22T12:25:45;8.93;;;7.32;;
58760;SDS011;44529;47.464;19.014;2023-06-22T12:28:48;10.30;;;7.43;;
58760;SDS011;44529;47.464;19.014;2023-06-22T12:31:50;11.15;;;8.00;;
58760;SDS011;44529;47.464;19.014;2023-06-22T12:34:52;8.35;;;7.43;;
58760;SDS011;44529;47.464;19.014;2023-06-22T12:37:57;13.15;;;8.05;;
58760;SDS011;44529;47.464;19.014;2023-06-22T12:41:00;12.25;;;7.80;;
58760;SDS011;44529;47.464;19.014;2023-06-22T12:44:03;10.25;;;7.68;;
58760;SDS011;44529;47.464;19.014;2023-06-22T12:47:05;11.32;;;7.97;;
58760;SDS011;44529;47.464;19.014;2023-06-22T12:50:08;8.57;;;7.70;;
58760;SDS011;44529;47.464;19.014;2023-06-22T12:53:11;8.75;;;7.65;;
58760;SDS011;44529;47.464;19.014;2023-06-22T12:56:13;12.25;;;7.90;;
58760;SDS011;44529;47.464;19.014;2023-06-22T12:59:15;17.12;;;7.45;;
58760;SDS011;44529;47.464;19.014;2023-06-22T13:02:19;9.27;;;7.80;;
58760;SDS011;44529;47.464;19.014;2023-06-22T13:05:22;11.18;;;7.60;;
58760;SDS011;44529;47.464;19.014;2023-06-22T13:08:24;13.32;;;7.25;;
58760;SDS011;44529;47.464;19.014;2023-06-22T13:11:46;11.07;;;7.70;;
58760;SDS011;44529;47.464;19.014;2023-06-22T13:14:49;12.48;;;7.97;;
58760;SDS011;44529;47.464;19.014;2023-06-22T13:17:51;13.48;;;7.95;;
58760;SDS011;44529;47.464;19.014;2023-06-22T13:20:54;17.50;;;8.05;;
58760;SDS011;44529;47.464;19.014;2023-06-22T13:23:56;11.88;;;7.75;;
58760;SDS011;44529;47.464;19.014;2023-06-22T13:26:59;8.95;;;8.00;;
58760;SDS011;44529;47.464;19.014;2023-06-22T13:30:02;12.93;;;7.68;;
58760;SDS011;44529;47.464;19.014;2023-06-22T13:33:04;12.80;;;7.53;;
58760;SDS011;44529;47.464;19.014;2023-06-22T13:36:07;15.40;;;8.07;;
58760;SDS011;44529;47.464;19.014;2023-06-22T13:39:09;16.35;;;8.20;;
58760;SDS011;44529;47.464;19.014;2023-06-22T13:42:12;10.68;;;8.43;;
58760;SDS011;44529;47.464;19.014;2023-06-22T13:45:14;9.60;;;7.80;;
58760;SDS011;44529;47.464;19.014;2023-06-22T13:48:19;11.68;;;8.32;;
58760;SDS011;44529;47.464;19.014;2023-06-22T13:51:21;10.55;;;8.40;;
58760;SDS011;44529;47.464;19.014;2023-06-22T13:54:24;12.35;;;8.27;;
58760;SDS011;44529;47.464;19.014;2023-06-22T13:57:31;14.87;;;8.27;;
58760;SDS011;44529;47.464;19.014;2023-06-22T14:00:34;10.00;;;7.70;;
58760;SDS011;44529;47.464;19.014;2023-06-22T14:03:37;15.90;;;8.40;;
58760;SDS011;44529;47.464;19.014;2023-06-22T14:06:39;9.55;;;8.68;;
58760;SDS011;44529;47.464;19.014;2023-06-22T14:09:42;12.40;;;8.02;;
58760;SDS011;44529;47.464;19.014;2023-06-22T14:12:44;13.35;;;8.60;;
58760;SDS011;44529;47.464;19.014;2023-06-22T14:15:48;11.77;;;8.20;;
58760;SDS011;44529;47.464;19.014;2023-06-22T14:18:50;11.48;;;8.05;;
58760;SDS011;44529;47.464;19.014;2023-06-22T14:21:54;11.65;;;8.38;;
58760;SDS011;44529;47.464;19.014;2023-06-22T14:24:58;15.25;;;7.97;;
58760;SDS011;44529;47.464;19.014;2023-06-22T14:28:01;16.90;;;7.28;;
58760;SDS011;44529;47.464;19.014;2023-06-22T14:31:03;13.38;;;8.48;;
58760;SDS011;44529;47.464;19.014;2023-06-22T14:34:05;15.00;;;7.65;;
58760;SDS011;44529;47.464;19.014;2023-06-22T14:37:08;10.38;;;7.53;;
58760;SDS011;44529;47.464;19.014;2023-06-22T14:40:12;11.70;;;8.60;;
58760;SDS011;44529;47.464;19.014;2023-06-22T14:43:14;12.00;;;7.72;;
58760;SDS011;44529;47.464;19.014;2023-06-22T14:46:17;13.48;;;7.72;;
58760;SDS011;44529;47.464;19.014;2023-06-22T14:49:21;12.43;;;8.27;;
58760;SDS011;44529;47.464;19.014;2023-06-22T14:52:24;12.60;;;7.65;;
58760;SDS011;44529;47.464;19.014;2023-06-22T14:55:26;12.95;;;8.35;;
58760;SDS011;44529;47.464;19.014;2023-06-22T14:58:31;14.00;;;7.85;;
58760;SDS011;44529;47.464;19.014;2023-06-22T15:01:37;12.70;;;7.97;;
58760;SDS011;44529;47.464;19.014;2023-06-22T15:04:43;13.15;;;7.60;;
58760;SDS011;44529;47.464;19.014;2023-06-22T15:07:45;10.60;;;7.80;;
58760;SDS011;44529;47.464;19.014;2023-06-22T15:10:47;9.93;;;7.97;;
58760;SDS011;44529;47.464;19.014;2023-06-22T15:13:49;11.90;;;8.18;;
58760;SDS011;44529;47.464;19.014;2023-06-22T15:16:52;9.57;;;8.52;;
58760;SDS011;44529;47.464;19.014;2023-06-22T15:19:55;12.10;;;8.10;;
58760;SDS011;44529;47.464;19.014;2023-06-22T15:22:59;11.70;;;7.97;;
58760;SDS011;44529;47.464;19.014;2023-06-22T15:26:02;13.05;;;7.65;;
58760;SDS011;44529;47.464;19.014;2023-06-22T15:29:08;16.12;;;8.50;;
58760;SDS011;44529;47.464;19.014;2023-06-22T15:32:11;11.88;;;8.18;;
58760;SDS011;44529;47.464;19.014;2023-06-22T15:35:13;11.98;;;8.48;;
58760;SDS011;44529;47.464;19.014;2023-06-22T15:38:18;10.82;;;7.85;;
58760;SDS011;44529;47.464;19.014;2023-06-22T15:41:21;12.85;;;8.30;;
58760;SDS011;44529;47.464;19.014;2023-06-22T15:44:24;15.40;;;8.50;;
58760;SDS011;44529;47.464;19.014;2023-06-22T15:47:27;14.02;;;9.00;;
58760;SDS011;44529;47.464;19.014;2023-06-22T15:50:29;14.10;;;9.75;;
58760;SDS011;44529;47.464;19.014;2023-06-22T15:53:32;11.20;;;8.52;;
58760;SDS011;44529;47.464;19.014;2023-06-22T15:56:34;11.50;;;8.25;;
58760;SDS011;44529;47.464;19.014;2023-06-22T15:59:37;12.82;;;7.90;;
58760;SDS011;44529;47.464;19.014;2023-06-22T16:02:39;11.00;;;7.97;;
58760;SDS011;44529;47.464;19.014;2023-06-22T16:05:42;11.02;;;8.25;;
58760;SDS011;44529;47.464;19.014;2023-06-22T16:08:44;16.20;;;7.70;;
58760;SDS011;44529;47.464;19.014;2023-06-22T16:11:47;18.40;;;8.60;;
58760;SDS011;44529;47.464;19.014;2023-06-22T16:14:49;13.82;;;8.50;;
58760;SDS011;44529;47.464;19.014;2023-06-22T16:17:52;11.07;;;8.95;;
58760;SDS011;44529;47.464;19.014;2023-06-22T16:20:54;13.18;;;8.02;;
58760;SDS011;44529;47.464;19.014;2023-06-22T16:23:57;11.63;;;8.65;;
58760;SDS011;44529;47.464;19.014;2023-06-22T16:26:59;11.32;;;8.40;;
58760;SDS011;44529;47.464;19.014;2023-06-22T16:30:01;10.25;;;7.65;;
58760;SDS011;44529;47.464;19.014;2023-06-22T16:33:04;11.35;;;8.15;;
58760;SDS011;44529;47.464;19.014;2023-06-22T16:36:07;12.65;;;8.05;;
58760;SDS011;44529;47.464;19.014;2023-06-22T16:39:09;14.38;;;7.85;;
58760;SDS011;44529;47.464;19.014;2023-06-22T16:42:12;11.30;;;8.20;;
58760;SDS011;44529;47.464;19.014;2023-06-22T16:45:14;15.75;;;8.20;;
58760;SDS011;44529;47.464;19.014;2023-06-22T16:48:19;11.18;;;8.82;;
58760;SDS011;44529;47.464;19.014;2023-06-22T16:51:22;12.65;;;8.38;;
58760;SDS011;44529;47.464;19.014;2023-06-22T16:54:24;15.88;;;8.93;;
58760;SDS011;44529;47.464;19.014;2023-06-22T16:57:26;16.52;;;8.45;;
58760;SDS011;44529;47.464;19.014;2023-06-22T17:00:29;14.65;;;9.30;;
58760;SDS011;44529;47.464;19.014;2023-06-22T17:03:33;9.20;;;8.25;;
58760;SDS011;44529;47.464;19.014;2023-06-22T17:06:37;12.43;;;8.50;;
58760;SDS011;44529;47.464;19.014;2023-06-22T17:09:45;16.17;;;9.57;;
58760;SDS011;44529;47.464;19.014;2023-06-22T17:12:49;12.13;;;8.57;;
58760;SDS011;44529;47.464;19.014;2023-06-22T17:15:55;14.75;;;8.20;;
58760;SDS011;44529;47.464;19.014;2023-06-22T17:19:01;10.00;;;8.73;;
58760;SDS011;44529;47.464;19.014;2023-06-22T17:22:06;13.05;;;8.85;;
58760;SDS011;44529;47.464;19.014;2023-06-22T17:25:09;12.13;;;8.52;;
58760;SDS011;44529;47.464;19.014;2023-06-22T17:28:11;12.37;;;8.85;;
58760;SDS011;44529;47.464;19.014;2023-06-22T17:31:15;11.07;;;8.73;;
58760;SDS011;44529;47.464;19.014;2023-06-22T17:34:17;13.95;;;8.48;;
58760;SDS011;44529;47.464;19.014;2023-06-22T17:37:22;14.68;;;9.02;;
58760;SDS011;44529;47.464;19.014;2023-06-22T17:40:25;12.55;;;8.98;;
58760;SDS011;44529;47.464;19.014;2023-06-22T17:43:37;14.75;;;8.80;;
58760;SDS011;44529;47.464;19.014;2023-06-22T17:46:45;13.10;;;8.93;;
58760;SDS011;44529;47.464;19.014;2023-06-22T17:49:47;12.68;;;9.27;;
58760;SDS011;44529;47.464;19.014;2023-06-22T17:52:53;11.27;;;8.88;;
58760;SDS011;44529;47.464;19.014;2023-06-22T17:55:59;16.55;;;9.32;;
58760;SDS011;44529;47.464;19.014;2023-06-22T17:59:03;13.98;;;9.45;;
58760;SDS011;44529;47.464;19.014;2023-06-22T18:02:06;15.63;;;9.38;;